sensor_id;sensor_type;location;lat;lon;timestamp;temperature;humidity
22212;DHT22;11275;52.488;13.462;2022-09-21T00:01:24;11.10;99.90
22212;DHT22;11275;52.488;13.462;2022-09-21T00:03:55;11.10;99.90
22212;DHT22;11275;52.488;13.462;2022-09-21T00:06:23;11.10;99.90
22212;DHT22;11275;52.488;13.462;2022-09-21T00:08:49;11.10;99.90
22212;DHT22;11275;52.488;13.462;2022-09-21T00:11:23;11.10;99.90
22212;DHT22;11275;52.488;13.462;2022-09-21T00:13:53;11.10;99.90
22212;DHT22;11275;52.488;13.462;2022-09-21T00:16:19;11.00;99.90
22212;DHT22;11275;52.488;13.462;2022-09-21T00:18:46;11.00;99.90
22212;DHT22;11275;52.488;13.462;2022-09-21T00:21:14;11.00;99.90
22212;DHT22;11275;52.488;13.462;2022-09-21T00:23:42;11.00;99.90
22212;DHT22;11275;52.488;13.462;2022-09-21T00:26:13;11.00;99.90
22212;DHT22;11275;52.488;13.462;2022-09-21T00:28:39;11.00;99.90
22212;DHT22;11275;52.488;13.462;2022-09-21T00:31:11;11.00;99.90
22212;DHT22;11275;52.488;13.462;2022-09-21T00:33:38;10.90;99.90
22212;DHT22;11275;52.488;13.462;2022-09-21T00:36:09;10.90;99.90
22212;DHT22;11275;52.488;13.462;2022-09-21T00:38:38;10.90;99.90
22212;DHT22;11275;52.488;13.462;2022-09-21T00:41:06;10.90;99.90
22212;DHT22;11275;52.488;13.462;2022-09-21T00:43:34;11.00;99.90
22212;DHT22;11275;52.488;13.462;2022-09-21T00:46:04;11.00;99.90
22212;DHT22;11275;52.488;13.462;2022-09-21T00:48:31;11.00;99.90
22212;DHT22;11275;52.488;13.462;2022-09-21T00:51:02;11.00;99.90
22212;DHT22;11275;52.488;13.462;2022-09-21T00:53:31;10.90;99.90
22212;DHT22;11275;52.488;13.462;2022-09-21T00:55:58;11.00;99.90
22212;DHT22;11275;52.488;13.462;2022-09-21T00:58:30;11.00;99.90
22212;DHT22;11275;52.488;13.462;2022-09-21T01:00:59;11.00;99.90
22212;DHT22;11275;52.488;13.462;2022-09-21T01:03:25;10.90;99.90
22212;DHT22;11275;52.488;13.462;2022-09-21T01:05:57;10.90;99.90
22212;DHT22;11275;52.488;13.462;2022-09-21T01:08:26;10.90;99.90
22212;DHT22;11275;52.488;13.462;2022-09-21T01:22:03;10.90;99.90
22212;DHT22;11275;52.488;13.462;2022-09-21T01:24:47;10.90;99.90
22212;DHT22;11275;52.488;13.462;2022-09-21T01:27:20;10.90;99.90
22212;DHT22;11275;52.488;13.462;2022-09-21T01:29:54;10.90;99.90
22212;DHT22;11275;52.488;13.462;2022-09-21T01:35:32;10.90;99.90
22212;DHT22;11275;52.488;13.462;2022-09-21T01:38:05;10.80;99.90
22212;DHT22;11275;52.488;13.462;2022-09-21T01:40:37;10.90;99.90
22212;DHT22;11275;52.488;13.462;2022-09-21T01:43:04;10.80;99.90
22212;DHT22;11275;52.488;13.462;2022-09-21T01:45:38;10.80;99.90
22212;DHT22;11275;52.488;13.462;2022-09-21T01:48:09;10.80;99.90
22212;DHT22;11275;52.488;13.462;2022-09-21T01:50:42;10.80;99.90
22212;DHT22;11275;52.488;13.462;2022-09-21T01:53:15;10.80;99.90
22212;DHT22;11275;52.488;13.462;2022-09-21T01:55:47;10.80;99.90
22212;DHT22;11275;52.488;13.462;2022-09-21T01:58:29;10.70;99.90
22212;DHT22;11275;52.488;13.462;2022-09-21T02:00:57;10.70;99.90
22212;DHT22;11275;52.488;13.462;2022-09-21T02:03:32;10.70;99.90
22212;DHT22;11275;52.488;13.462;2022-09-21T02:06:00;10.70;99.90
22212;DHT22;11275;52.488;13.462;2022-09-21T02:08:31;10.70;99.90
22212;DHT22;11275;52.488;13.462;2022-09-21T02:10:59;10.70;99.90
22212;DHT22;11275;52.488;13.462;2022-09-21T02:13:35;10.70;99.90
22212;DHT22;11275;52.488;13.462;2022-09-21T02:18:47;10.70;99.90
22212;DHT22;11275;52.488;13.462;2022-09-21T02:21:50;10.70;99.90
22212;DHT22;11275;52.488;13.462;2022-09-21T02:27:32;10.70;99.90
22212;DHT22;11275;52.488;13.462;2022-09-21T02:33:07;10.60;99.90
22212;DHT22;11275;52.488;13.462;2022-09-21T02:36:03;10.60;99.90
22212;DHT22;11275;52.488;13.462;2022-09-21T02:38:40;10.60;99.90
22212;DHT22;11275;52.488;13.462;2022-09-21T02:46:25;10.60;99.90
22212;DHT22;11275;52.488;13.462;2022-09-21T02:48:57;10.60;99.90
22212;DHT22;11275;52.488;13.462;2022-09-21T02:51:35;10.60;99.90
22212;DHT22;11275;52.488;13.462;2022-09-21T02:54:03;10.60;99.90
22212;DHT22;11275;52.488;13.462;2022-09-21T02:56:31;10.60;99.90
22212;DHT22;11275;52.488;13.462;2022-09-21T02:59:00;10.60;99.90
22212;DHT22;11275;52.488;13.462;2022-09-21T03:01:29;10.70;99.90
22212;DHT22;11275;52.488;13.462;2022-09-21T03:04:02;10.60;99.90
22212;DHT22;11275;52.488;13.462;2022-09-21T03:06:28;10.60;99.90
22212;DHT22;11275;52.488;13.462;2022-09-21T03:08:58;10.60;99.90
22212;DHT22;11275;52.488;13.462;2022-09-21T03:11:27;10.50;99.90
22212;DHT22;11275;52.488;13.462;2022-09-21T03:13:56;10.50;99.90
22212;DHT22;11275;52.488;13.462;2022-09-21T03:16:21;10.50;99.90
22212;DHT22;11275;52.488;13.462;2022-09-21T03:18:50;10.50;99.90
22212;DHT22;11275;52.488;13.462;2022-09-21T03:21:19;10.40;99.90
22212;DHT22;11275;52.488;13.462;2022-09-21T03:23:45;10.50;99.90
22212;DHT22;11275;52.488;13.462;2022-09-21T03:26:11;10.50;99.90
22212;DHT22;11275;52.488;13.462;2022-09-21T03:28:39;10.50;99.90
22212;DHT22;11275;52.488;13.462;2022-09-21T03:31:08;10.50;99.90
22212;DHT22;11275;52.488;13.462;2022-09-21T03:33:34;10.50;99.90
22212;DHT22;11275;52.488;13.462;2022-09-21T03:36:03;10.50;99.90
22212;DHT22;11275;52.488;13.462;2022-09-21T03:38:31;10.50;99.90
22212;DHT22;11275;52.488;13.462;2022-09-21T03:40:57;10.50;99.90
22212;DHT22;11275;52.488;13.462;2022-09-21T03:43:26;10.50;99.90
22212;DHT22;11275;52.488;13.462;2022-09-21T03:45:54;10.50;99.90
22212;DHT22;11275;52.488;13.462;2022-09-21T03:48:20;10.50;99.90
22212;DHT22;11275;52.488;13.462;2022-09-21T03:50:49;10.50;99.90
22212;DHT22;11275;52.488;13.462;2022-09-21T03:53:15;10.50;99.90
22212;DHT22;11275;52.488;13.462;2022-09-21T03:55:41;10.50;99.90
22212;DHT22;11275;52.488;13.462;2022-09-21T03:58:07;10.40;99.90
22212;DHT22;11275;52.488;13.462;2022-09-21T04:00:34;10.40;99.90
22212;DHT22;11275;52.488;13.462;2022-09-21T04:03:00;10.40;99.90
22212;DHT22;11275;52.488;13.462;2022-09-21T04:05:26;10.40;99.90
22212;DHT22;11275;52.488;13.462;2022-09-21T04:07:56;10.40;99.90
22212;DHT22;11275;52.488;13.462;2022-09-21T04:10:27;10.40;99.90
22212;DHT22;11275;52.488;13.462;2022-09-21T04:12:58;10.50;99.90
22212;DHT22;11275;52.488;13.462;2022-09-21T04:15:29;10.50;99.90
22212;DHT22;11275;52.488;13.462;2022-09-21T04:18:04;10.50;99.90
22212;DHT22;11275;52.488;13.462;2022-09-21T04:20:41;10.40;99.90
22212;DHT22;11275;52.488;13.462;2022-09-21T04:23:06;10.40;99.90
22212;DHT22;11275;52.488;13.462;2022-09-21T04:25:33;10.40;99.90
22212;DHT22;11275;52.488;13.462;2022-09-21T04:28:08;10.40;99.90
22212;DHT22;11275;52.488;13.462;2022-09-21T04:30:34;10.40;99.90
22212;DHT22;11275;52.488;13.462;2022-09-21T04:33:00;10.30;99.90
22212;DHT22;11275;52.488;13.462;2022-09-21T04:35:26;10.30;99.90
22212;DHT22;11275;52.488;13.462;2022-09-21T04:37:54;10.30;99.90
22212;DHT22;11275;52.488;13.462;2022-09-21T04:40:22;10.30;99.90
22212;DHT22;11275;52.488;13.462;2022-09-21T04:42:51;10.30;99.90
22212;DHT22;11275;52.488;13.462;2022-09-21T04:45:21;10.20;99.90
22212;DHT22;11275;52.488;13.462;2022-09-21T04:47:47;10.20;99.90
22212;DHT22;11275;52.488;13.462;2022-09-21T04:50:13;10.20;99.90
22212;DHT22;11275;52.488;13.462;2022-09-21T04:52:39;10.30;99.90
22212;DHT22;11275;52.488;13.462;2022-09-21T04:55:06;10.30;99.90
22212;DHT22;11275;52.488;13.462;2022-09-21T04:57:35;10.30;99.90
22212;DHT22;11275;52.488;13.462;2022-09-21T05:00:04;10.20;99.90
22212;DHT22;11275;52.488;13.462;2022-09-21T05:02:33;10.20;99.90
22212;DHT22;11275;52.488;13.462;2022-09-21T05:05:04;10.20;99.90
22212;DHT22;11275;52.488;13.462;2022-09-21T05:07:36;10.20;99.90
22212;DHT22;11275;52.488;13.462;2022-09-21T05:10:02;10.20;99.90
22212;DHT22;11275;52.488;13.462;2022-09-21T05:12:29;10.20;99.90
22212;DHT22;11275;52.488;13.462;2022-09-21T05:14:55;10.20;99.90
22212;DHT22;11275;52.488;13.462;2022-09-21T05:17:21;10.20;99.90
22212;DHT22;11275;52.488;13.462;2022-09-21T05:19:55;10.20;99.90
22212;DHT22;11275;52.488;13.462;2022-09-21T05:22:21;10.20;99.90
22212;DHT22;11275;52.488;13.462;2022-09-21T05:24:47;10.20;99.90
22212;DHT22;11275;52.488;13.462;2022-09-21T05:27:13;10.20;99.90
22212;DHT22;11275;52.488;13.462;2022-09-21T05:29:45;10.30;99.90
22212;DHT22;11275;52.488;13.462;2022-09-21T05:37:43;10.30;99.90
22212;DHT22;11275;52.488;13.462;2022-09-21T05:40:11;10.30;99.90
22212;DHT22;11275;52.488;13.462;2022-09-21T05:42:37;10.30;99.90
22212;DHT22;11275;52.488;13.462;2022-09-21T05:45:06;10.30;99.90
22212;DHT22;11275;52.488;13.462;2022-09-21T05:48:10;10.30;99.90
22212;DHT22;11275;52.488;13.462;2022-09-21T05:50:48;10.30;99.90
22212;DHT22;11275;52.488;13.462;2022-09-21T05:56:42;10.40;99.90
22212;DHT22;11275;52.488;13.462;2022-09-21T05:59:38;10.50;99.90
22212;DHT22;11275;52.488;13.462;2022-09-21T06:04:47;10.60;99.90
22212;DHT22;11275;52.488;13.462;2022-09-21T06:07:14;10.70;99.90
22212;DHT22;11275;52.488;13.462;2022-09-21T06:09:40;10.70;99.90
22212;DHT22;11275;52.488;13.462;2022-09-21T06:12:06;10.80;99.90
22212;DHT22;11275;52.488;13.462;2022-09-21T06:14:32;10.80;99.90
22212;DHT22;11275;52.488;13.462;2022-09-21T06:16:58;10.90;99.90
22212;DHT22;11275;52.488;13.462;2022-09-21T06:19:26;10.90;99.90
22212;DHT22;11275;52.488;13.462;2022-09-21T06:21:52;11.00;99.90
22212;DHT22;11275;52.488;13.462;2022-09-21T06:24:18;11.10;99.90
22212;DHT22;11275;52.488;13.462;2022-09-21T06:26:44;11.20;99.90
22212;DHT22;11275;52.488;13.462;2022-09-21T06:29:15;11.30;99.90
22212;DHT22;11275;52.488;13.462;2022-09-21T06:31:42;11.30;99.90
22212;DHT22;11275;52.488;13.462;2022-09-21T06:34:22;11.40;99.90
22212;DHT22;11275;52.488;13.462;2022-09-21T06:36:48;11.40;99.90
22212;DHT22;11275;52.488;13.462;2022-09-21T06:39:14;11.50;99.90
22212;DHT22;11275;52.488;13.462;2022-09-21T06:41:42;11.50;99.90
22212;DHT22;11275;52.488;13.462;2022-09-21T06:44:08;11.50;99.90
22212;DHT22;11275;52.488;13.462;2022-09-21T06:46:37;11.60;99.90
22212;DHT22;11275;52.488;13.462;2022-09-21T06:49:04;11.60;99.90
22212;DHT22;11275;52.488;13.462;2022-09-21T06:51:33;11.70;99.90
22212;DHT22;11275;52.488;13.462;2022-09-21T06:53:59;11.70;99.90
22212;DHT22;11275;52.488;13.462;2022-09-21T06:56:28;11.80;99.90
22212;DHT22;11275;52.488;13.462;2022-09-21T06:58:54;11.80;99.90
22212;DHT22;11275;52.488;13.462;2022-09-21T07:01:20;11.90;99.90
22212;DHT22;11275;52.488;13.462;2022-09-21T07:03:49;12.00;99.90
22212;DHT22;11275;52.488;13.462;2022-09-21T07:06:16;12.00;99.90
22212;DHT22;11275;52.488;13.462;2022-09-21T07:08:42;12.10;99.90
22212;DHT22;11275;52.488;13.462;2022-09-21T07:11:13;12.20;99.90
22212;DHT22;11275;52.488;13.462;2022-09-21T07:16:24;12.30;99.90
22212;DHT22;11275;52.488;13.462;2022-09-21T07:18:50;12.40;99.90
22212;DHT22;11275;52.488;13.462;2022-09-21T07:21:19;12.40;99.90
22212;DHT22;11275;52.488;13.462;2022-09-21T07:23:45;12.40;99.90
22212;DHT22;11275;52.488;13.462;2022-09-21T07:26:12;12.40;99.90
22212;DHT22;11275;52.488;13.462;2022-09-21T07:28:41;12.40;99.90
22212;DHT22;11275;52.488;13.462;2022-09-21T07:31:11;12.50;99.90
22212;DHT22;11275;52.488;13.462;2022-09-21T07:33:40;12.50;99.90
22212;DHT22;11275;52.488;13.462;2022-09-21T07:36:09;12.50;99.90
22212;DHT22;11275;52.488;13.462;2022-09-21T07:38:38;12.50;99.90
22212;DHT22;11275;52.488;13.462;2022-09-21T07:41:11;12.60;99.90
22212;DHT22;11275;52.488;13.462;2022-09-21T07:43:39;12.60;99.90
22212;DHT22;11275;52.488;13.462;2022-09-21T07:46:11;12.60;99.90
22212;DHT22;11275;52.488;13.462;2022-09-21T07:48:41;12.60;99.90
22212;DHT22;11275;52.488;13.462;2022-09-21T07:51:10;12.70;99.90
22212;DHT22;11275;52.488;13.462;2022-09-21T07:53:38;12.80;99.90
22212;DHT22;11275;52.488;13.462;2022-09-21T07:56:06;12.80;99.90
22212;DHT22;11275;52.488;13.462;2022-09-21T07:58:37;12.90;99.90
22212;DHT22;11275;52.488;13.462;2022-09-21T08:01:23;12.80;99.90
22212;DHT22;11275;52.488;13.462;2022-09-21T08:03:50;12.90;99.90
22212;DHT22;11275;52.488;13.462;2022-09-21T08:06:23;13.10;99.90
22212;DHT22;11275;52.488;13.462;2022-09-21T08:08:52;13.20;99.90
22212;DHT22;11275;52.488;13.462;2022-09-21T08:11:20;13.20;99.90
22212;DHT22;11275;52.488;13.462;2022-09-21T08:14:06;13.30;99.90
22212;DHT22;11275;52.488;13.462;2022-09-21T08:16:37;13.30;99.90
22212;DHT22;11275;52.488;13.462;2022-09-21T08:19:06;13.40;99.90
22212;DHT22;11275;52.488;13.462;2022-09-21T08:21:34;13.50;99.90
22212;DHT22;11275;52.488;13.462;2022-09-21T08:24:06;13.50;99.90
22212;DHT22;11275;52.488;13.462;2022-09-21T08:26:35;13.60;99.90
22212;DHT22;11275;52.488;13.462;2022-09-21T08:29:01;13.60;99.90
22212;DHT22;11275;52.488;13.462;2022-09-21T08:31:27;13.70;99.90
22212;DHT22;11275;52.488;13.462;2022-09-21T08:33:55;13.70;99.90
22212;DHT22;11275;52.488;13.462;2022-09-21T08:36:30;13.80;99.90
22212;DHT22;11275;52.488;13.462;2022-09-21T08:38:58;13.80;99.90
22212;DHT22;11275;52.488;13.462;2022-09-21T08:47:03;14.00;99.90
22212;DHT22;11275;52.488;13.462;2022-09-21T08:49:33;14.00;99.90
22212;DHT22;11275;52.488;13.462;2022-09-21T08:52:13;14.20;99.90
22212;DHT22;11275;52.488;13.462;2022-09-21T08:54:51;14.20;99.90
22212;DHT22;11275;52.488;13.462;2022-09-21T08:57:19;14.30;99.90
22212;DHT22;11275;52.488;13.462;2022-09-21T08:59:48;14.30;99.90
22212;DHT22;11275;52.488;13.462;2022-09-21T09:05:11;14.50;99.90
22212;DHT22;11275;52.488;13.462;2022-09-21T09:08:05;14.50;99.90
22212;DHT22;11275;52.488;13.462;2022-09-21T09:10:37;14.50;99.90
22212;DHT22;11275;52.488;13.462;2022-09-21T09:16:17;14.40;99.90
22212;DHT22;11275;52.488;13.462;2022-09-21T09:18:51;14.50;99.90
22212;DHT22;11275;52.488;13.462;2022-09-21T09:21:28;14.60;99.90
22212;DHT22;11275;52.488;13.462;2022-09-21T09:24:16;14.70;99.90
22212;DHT22;11275;52.488;13.462;2022-09-21T09:26:52;14.70;99.90
22212;DHT22;11275;52.488;13.462;2022-09-21T09:32:40;14.60;99.90
22212;DHT22;11275;52.488;13.462;2022-09-21T09:35:25;14.60;99.90
22212;DHT22;11275;52.488;13.462;2022-09-21T09:37:55;14.50;99.90
22212;DHT22;11275;52.488;13.462;2022-09-21T09:43:40;14.40;99.90
22212;DHT22;11275;52.488;13.462;2022-09-21T09:51:12;14.40;99.90
22212;DHT22;11275;52.488;13.462;2022-09-21T09:53:38;14.30;99.90
22212;DHT22;11275;52.488;13.462;2022-09-21T09:56:05;14.40;99.90
22212;DHT22;11275;52.488;13.462;2022-09-21T09:58:51;14.40;99.90
22212;DHT22;11275;52.488;13.462;2022-09-21T10:02:09;14.40;99.90
22212;DHT22;11275;52.488;13.462;2022-09-21T10:04:54;14.40;99.90
22212;DHT22;11275;52.488;13.462;2022-09-21T10:07:36;14.50;99.90
22212;DHT22;11275;52.488;13.462;2022-09-21T10:12:47;14.60;99.90
22212;DHT22;11275;52.488;13.462;2022-09-21T10:15:15;14.70;99.90
22212;DHT22;11275;52.488;13.462;2022-09-21T10:17:44;14.70;99.90
22212;DHT22;11275;52.488;13.462;2022-09-21T10:20:16;14.80;99.90
22212;DHT22;11275;52.488;13.462;2022-09-21T10:22:47;14.80;99.90
22212;DHT22;11275;52.488;13.462;2022-09-21T10:25:18;14.80;99.90
22212;DHT22;11275;52.488;13.462;2022-09-21T10:27:47;14.90;99.90
22212;DHT22;11275;52.488;13.462;2022-09-21T10:30:35;14.90;99.90
22212;DHT22;11275;52.488;13.462;2022-09-21T10:33:06;14.90;99.90
22212;DHT22;11275;52.488;13.462;2022-09-21T10:35:52;14.90;99.90
22212;DHT22;11275;52.488;13.462;2022-09-21T10:38:19;15.10;99.90
22212;DHT22;11275;52.488;13.462;2022-09-21T10:40:46;15.10;99.90
22212;DHT22;11275;52.488;13.462;2022-09-21T10:45:57;15.30;99.90
22212;DHT22;11275;52.488;13.462;2022-09-21T10:48:25;15.40;99.90
22212;DHT22;11275;52.488;13.462;2022-09-21T10:50:53;15.60;99.90
22212;DHT22;11275;52.488;13.462;2022-09-21T10:53:30;15.70;99.90
22212;DHT22;11275;52.488;13.462;2022-09-21T10:56:05;15.90;99.90
22212;DHT22;11275;52.488;13.462;2022-09-21T10:58:32;16.10;99.90
22212;DHT22;11275;52.488;13.462;2022-09-21T11:01:21;16.20;99.90
22212;DHT22;11275;52.488;13.462;2022-09-21T11:04:04;16.40;99.90
22212;DHT22;11275;52.488;13.462;2022-09-21T11:06:44;16.50;99.90
22212;DHT22;11275;52.488;13.462;2022-09-21T11:09:17;16.50;99.90
22212;DHT22;11275;52.488;13.462;2022-09-21T11:17:52;16.20;99.90
22212;DHT22;11275;52.488;13.462;2022-09-21T11:22:59;16.00;99.90
22212;DHT22;11275;52.488;13.462;2022-09-21T11:26:07;15.80;99.90
22212;DHT22;11275;52.488;13.462;2022-09-21T11:42:18;16.50;99.90
22212;DHT22;11275;52.488;13.462;2022-09-21T11:44:51;16.70;99.90
22212;DHT22;11275;52.488;13.462;2022-09-21T11:47:51;16.70;99.90
22212;DHT22;11275;52.488;13.462;2022-09-21T11:50:32;16.40;99.90
22212;DHT22;11275;52.488;13.462;2022-09-21T11:56:17;16.50;99.90
22212;DHT22;11275;52.488;13.462;2022-09-21T12:02:10;16.50;99.90
22212;DHT22;11275;52.488;13.462;2022-09-21T12:10:10;16.30;99.90
22212;DHT22;11275;52.488;13.462;2022-09-21T12:21:21;16.30;99.90
22212;DHT22;11275;52.488;13.462;2022-09-21T12:24:03;16.30;99.90
22212;DHT22;11275;52.488;13.462;2022-09-21T12:26:53;16.40;99.90
22212;DHT22;11275;52.488;13.462;2022-09-21T12:29:44;16.40;99.90
22212;DHT22;11275;52.488;13.462;2022-09-21T12:35:02;16.30;99.90
22212;DHT22;11275;52.488;13.462;2022-09-21T12:37:38;16.30;99.90
22212;DHT22;11275;52.488;13.462;2022-09-21T12:40:29;16.30;99.90
22212;DHT22;11275;52.488;13.462;2022-09-21T12:43:01;16.30;99.90
22212;DHT22;11275;52.488;13.462;2022-09-21T12:45:32;16.40;99.90
22212;DHT22;11275;52.488;13.462;2022-09-21T12:50:51;16.30;99.90
22212;DHT22;11275;52.488;13.462;2022-09-21T12:53:23;16.40;99.90
22212;DHT22;11275;52.488;13.462;2022-09-21T12:56:01;16.50;99.90
22212;DHT22;11275;52.488;13.462;2022-09-21T13:09:59;16.80;99.90
22212;DHT22;11275;52.488;13.462;2022-09-21T13:12:30;16.80;99.90
22212;DHT22;11275;52.488;13.462;2022-09-21T13:15:12;16.80;99.90
22212;DHT22;11275;52.488;13.462;2022-09-21T13:17:39;16.80;99.90
22212;DHT22;11275;52.488;13.462;2022-09-21T13:20:17;16.80;99.90
22212;DHT22;11275;52.488;13.462;2022-09-21T13:22:44;16.80;99.90
22212;DHT22;11275;52.488;13.462;2022-09-21T13:25:19;16.80;99.90
22212;DHT22;11275;52.488;13.462;2022-09-21T13:28:05;16.80;99.90
22212;DHT22;11275;52.488;13.462;2022-09-21T13:30:45;16.70;99.90
22212;DHT22;11275;52.488;13.462;2022-09-21T13:38:25;16.70;99.90
22212;DHT22;11275;52.488;13.462;2022-09-21T13:41:00;16.80;99.90
22212;DHT22;11275;52.488;13.462;2022-09-21T13:52:04;17.00;99.90
22212;DHT22;11275;52.488;13.462;2022-09-21T13:54:38;17.10;99.90
22212;DHT22;11275;52.488;13.462;2022-09-21T13:57:20;17.10;99.90
22212;DHT22;11275;52.488;13.462;2022-09-21T14:00:04;17.10;99.90
22212;DHT22;11275;52.488;13.462;2022-09-21T14:05:21;17.00;99.90
22212;DHT22;11275;52.488;13.462;2022-09-21T14:07:57;17.10;99.90
22212;DHT22;11275;52.488;13.462;2022-09-21T14:10:25;17.10;99.90
22212;DHT22;11275;52.488;13.462;2022-09-21T14:12:52;17.00;99.90
22212;DHT22;11275;52.488;13.462;2022-09-21T14:18:20;17.10;99.90
22212;DHT22;11275;52.488;13.462;2022-09-21T14:24:08;17.20;99.90
22212;DHT22;11275;52.488;13.462;2022-09-21T14:29:49;17.30;99.90
22212;DHT22;11275;52.488;13.462;2022-09-21T14:32:22;17.30;99.90
22212;DHT22;11275;52.488;13.462;2022-09-21T14:34:50;17.30;99.90
22212;DHT22;11275;52.488;13.462;2022-09-21T14:37:31;17.40;99.90
22212;DHT22;11275;52.488;13.462;2022-09-21T14:40:03;17.40;99.90
22212;DHT22;11275;52.488;13.462;2022-09-21T14:42:31;17.50;99.90
22212;DHT22;11275;52.488;13.462;2022-09-21T14:45:00;17.50;99.90
22212;DHT22;11275;52.488;13.462;2022-09-21T14:50:27;17.70;99.90
22212;DHT22;11275;52.488;13.462;2022-09-21T15:01:34;17.40;99.90
22212;DHT22;11275;52.488;13.462;2022-09-21T15:04:31;17.40;99.90
22212;DHT22;11275;52.488;13.462;2022-09-21T15:13:07;17.50;99.90
22212;DHT22;11275;52.488;13.462;2022-09-21T15:15:45;17.60;99.90
22212;DHT22;11275;52.488;13.462;2022-09-21T15:18:20;17.70;99.90
22212;DHT22;11275;52.488;13.462;2022-09-21T15:21:00;17.80;99.90
22212;DHT22;11275;52.488;13.462;2022-09-21T15:23:38;17.80;99.90
22212;DHT22;11275;52.488;13.462;2022-09-21T15:26:11;17.80;99.90
22212;DHT22;11275;52.488;13.462;2022-09-21T15:28:43;17.90;99.90
22212;DHT22;11275;52.488;13.462;2022-09-21T15:31:13;17.80;99.90
22212;DHT22;11275;52.488;13.462;2022-09-21T15:33:40;17.80;99.90
22212;DHT22;11275;52.488;13.462;2022-09-21T15:36:06;17.90;99.90
22212;DHT22;11275;52.488;13.462;2022-09-21T15:38:34;18.00;99.90
22212;DHT22;11275;52.488;13.462;2022-09-21T15:41:01;18.00;99.90
22212;DHT22;11275;52.488;13.462;2022-09-21T15:43:27;18.10;99.90
22212;DHT22;11275;52.488;13.462;2022-09-21T15:48:43;18.10;99.90
22212;DHT22;11275;52.488;13.462;2022-09-21T15:51:16;18.10;99.70
22212;DHT22;11275;52.488;13.462;2022-09-21T15:53:56;17.90;99.50
22212;DHT22;11275;52.488;13.462;2022-09-21T15:56:25;17.70;99.40
22212;DHT22;11275;52.488;13.462;2022-09-21T15:58:59;17.50;99.50
22212;DHT22;11275;52.488;13.462;2022-09-21T16:01:41;17.40;99.90
22212;DHT22;11275;52.488;13.462;2022-09-21T16:04:14;17.40;99.90
22212;DHT22;11275;52.488;13.462;2022-09-21T16:06:43;17.40;99.90
22212;DHT22;11275;52.488;13.462;2022-09-21T16:09:37;17.40;99.90
22212;DHT22;11275;52.488;13.462;2022-09-21T16:15:08;17.40;99.90
22212;DHT22;11275;52.488;13.462;2022-09-21T16:18:01;17.30;99.90
22212;DHT22;11275;52.488;13.462;2022-09-21T16:20:44;17.30;99.90
22212;DHT22;11275;52.488;13.462;2022-09-21T16:23:21;17.20;99.90
22212;DHT22;11275;52.488;13.462;2022-09-21T16:25:58;17.20;99.90
22212;DHT22;11275;52.488;13.462;2022-09-21T16:28:37;17.10;99.90
22212;DHT22;11275;52.488;13.462;2022-09-21T16:31:28;17.10;99.90
22212;DHT22;11275;52.488;13.462;2022-09-21T16:38:59;17.00;99.90
22212;DHT22;11275;52.488;13.462;2022-09-21T16:42:00;16.90;99.90
22212;DHT22;11275;52.488;13.462;2022-09-21T16:44:27;16.90;99.90
22212;DHT22;11275;52.488;13.462;2022-09-21T16:47:01;16.80;99.90
22212;DHT22;11275;52.488;13.462;2022-09-21T16:49:30;16.70;99.90
22212;DHT22;11275;52.488;13.462;2022-09-21T16:51:59;16.70;99.90
22212;DHT22;11275;52.488;13.462;2022-09-21T16:54:26;16.70;99.90
22212;DHT22;11275;52.488;13.462;2022-09-21T16:56:54;16.70;99.90
22212;DHT22;11275;52.488;13.462;2022-09-21T16:59:20;16.60;99.90
22212;DHT22;11275;52.488;13.462;2022-09-21T17:01:53;16.60;99.90
22212;DHT22;11275;52.488;13.462;2022-09-21T17:04:21;16.50;99.90
22212;DHT22;11275;52.488;13.462;2022-09-21T17:06:49;16.50;99.90
22212;DHT22;11275;52.488;13.462;2022-09-21T17:09:19;16.40;99.90
22212;DHT22;11275;52.488;13.462;2022-09-21T17:11:45;16.40;99.90
22212;DHT22;11275;52.488;13.462;2022-09-21T17:14:12;16.40;99.90
22212;DHT22;11275;52.488;13.462;2022-09-21T17:16:58;16.40;99.90
22212;DHT22;11275;52.488;13.462;2022-09-21T17:19:25;16.30;99.90
22212;DHT22;11275;52.488;13.462;2022-09-21T17:21:50;16.30;99.90
22212;DHT22;11275;52.488;13.462;2022-09-21T17:24:16;16.20;99.90
22212;DHT22;11275;52.488;13.462;2022-09-21T17:26:43;16.30;99.90
22212;DHT22;11275;52.488;13.462;2022-09-21T17:29:25;16.10;99.90
22212;DHT22;11275;52.488;13.462;2022-09-21T17:31:55;16.10;99.90
22212;DHT22;11275;52.488;13.462;2022-09-21T17:34:25;16.10;99.90
22212;DHT22;11275;52.488;13.462;2022-09-21T17:36:51;16.00;99.90
22212;DHT22;11275;52.488;13.462;2022-09-21T17:39:19;16.00;99.90
22212;DHT22;11275;52.488;13.462;2022-09-21T17:41:55;15.90;99.90
22212;DHT22;11275;52.488;13.462;2022-09-21T17:44:41;15.90;99.90
22212;DHT22;11275;52.488;13.462;2022-09-21T17:47:23;15.80;99.90
22212;DHT22;11275;52.488;13.462;2022-09-21T17:49:52;15.80;99.90
22212;DHT22;11275;52.488;13.462;2022-09-21T17:52:20;15.70;99.90
22212;DHT22;11275;52.488;13.462;2022-09-21T17:55:07;15.60;99.90
22212;DHT22;11275;52.488;13.462;2022-09-21T18:03:19;15.50;99.90
22212;DHT22;11275;52.488;13.462;2022-09-21T18:05:47;15.40;99.90
22212;DHT22;11275;52.488;13.462;2022-09-21T18:08:13;15.40;99.90
22212;DHT22;11275;52.488;13.462;2022-09-21T18:10:43;15.40;99.90
22212;DHT22;11275;52.488;13.462;2022-09-21T18:13:18;15.30;99.90
22212;DHT22;11275;52.488;13.462;2022-09-21T18:18:49;15.20;99.90
22212;DHT22;11275;52.488;13.462;2022-09-21T18:21:19;15.10;99.90
22212;DHT22;11275;52.488;13.462;2022-09-21T18:26:40;15.10;99.90
22212;DHT22;11275;52.488;13.462;2022-09-21T18:29:19;15.00;99.90
22212;DHT22;11275;52.488;13.462;2022-09-21T18:40:43;14.80;99.90
22212;DHT22;11275;52.488;13.462;2022-09-21T18:45:42;14.70;99.90
22212;DHT22;11275;52.488;13.462;2022-09-21T18:51:00;14.70;99.90
22212;DHT22;11275;52.488;13.462;2022-09-21T18:53:50;14.70;99.90
22212;DHT22;11275;52.488;13.462;2022-09-21T18:56:25;14.70;99.90
22212;DHT22;11275;52.488;13.462;2022-09-21T18:58:51;14.60;99.90
22212;DHT22;11275;52.488;13.462;2022-09-21T19:01:18;14.60;99.90
22212;DHT22;11275;52.488;13.462;2022-09-21T19:03:48;14.60;99.90
22212;DHT22;11275;52.488;13.462;2022-09-21T19:14:56;14.50;99.90
22212;DHT22;11275;52.488;13.462;2022-09-21T19:23:19;14.40;99.90
22212;DHT22;11275;52.488;13.462;2022-09-21T19:25:51;14.30;99.90
22212;DHT22;11275;52.488;13.462;2022-09-21T19:31:00;14.30;99.90
22212;DHT22;11275;52.488;13.462;2022-09-21T19:33:30;14.20;99.90